OOCL California — VRWC8 — position and weather

sailwx.info

Track history (hours):
 
Tides and Currents Weather Stations Pressure Air Temp Water Temp Dewpoint Dewpoint Depression Visibility Wind Speed Wind Dir Waves Ship Positions

OOCL California

Last reported at 2018-Apr-19 10:15 UTC. Time now 2018-Apr-20 16:45 UTC.
Position N 22°57' E 117°02'.

Length 276 m; beam 40 m; draft 14 m.

Type: Ship. MMSI: 477704000.

Date/timePositionNaut miles runAvg speedWind from/ knotsBaromVisibWave heightAir tempDewpointWater temp
2018-Apr-19 10:15N 22°57' E 117°02'2017.9
2018-Apr-19 09:10N 23°08' E 117°20'418.1
2018-Apr-19 08:56N 23°10' E 117°24'818.3
2018-Apr-19 08:30N 23°14' E 117°31'918.4
2018-Apr-19 08:00N 23°20' E 117°39'918.5
2018-Apr-19 07:31N 23°24' E 117°48'918.3
2018-Apr-19 07:00N 23°30' E 117°56'918.0
2018-Apr-19 06:30N 23°36' E 118°03'917.8
2018-Apr-19 06:00N 23°42' E 118°10'917.7
2018-Apr-19 05:31N 23°48' E 118°17'917.4
2018-Apr-19 05:01N 23°54' E 118°24'917.1
2018-Apr-19 04:30N 23°60' E 118°31'817.0
2018-Apr-19 04:01N 24°05' E 118°38'816.8
2018-Apr-19 03:30N 24°11' E 118°45'816.7
2018-Apr-19 03:00N 24°16' E 118°52'916.2
2018-Apr-19 02:26N 24°22' E 118°60'715.6
2018-Apr-19 02:00N 24°26' E 119°05'815.6
2018-Apr-19 01:30N 24°31' E 119°12'915.5
2018-Apr-19 00:56N 24°37' E 119°19'715.5
2018-Apr-19 00:30N 24°42' E 119°25'5 9.6
2018-Apr-19 00:00N 24°42' E 119°30'   350 / 221012.0 5.4 19.015.9
2018-Apr-16 08:05N 30°59' E 122°31'113.8
2018-Apr-16 08:01N 31°00' E 122°32'1310.3
2018-Apr-16 06:47N 31°06' E 122°18'1943.9
2018-Apr-16 06:22N 31°15' E 121°59'1010.2
2018-Apr-16 05:22N 31°17' E 121°48'2 5.3
2018-Apr-16 05:00N 31°18' E 121°46'6 1.7
2018-Apr-16 01:25N 31°20' E 121°39'0 0.0
2018-Apr-16 00:58N 31°20' E 121°39'0 0.0
2018-Apr-15 21:34N 31°20' E 121°39'0 0.0
2018-Apr-15 18:52N 31°20' E 121°39'0 0.0
2018-Apr-15 18:25N 31°20' E 121°39'0 0.0
2018-Apr-15 16:47N 31°20' E 121°39'1 0.8
2018-Apr-15 15:42N 31°21' E 121°38'1 4.1
2018-Apr-15 15:26N 31°21' E 121°40'4 8.2
2018-Apr-15 14:55N 31°19' E 121°44'410.1
2018-Apr-15 14:30N 31°17' E 121°48'610.3
2018-Apr-15 13:54N 31°16' E 121°55'510.2
2018-Apr-15 13:22N 31°15' E 122°02'6 8.8
2018-Apr-15 12:44N 31°13' E 122°08'2 8.4
2018-Apr-15 12:29N 31°11' E 122°10'4 8.1
2018-Apr-15 12:00N 31°09' E 122°13'4 6.1
2018-Apr-15 11:22N 31°07' E 122°17'4 9.0
2018-Apr-15 10:59N 31°06' E 122°21'6 9.9
2018-Apr-15 10:25N 31°07' E 122°28'4 7.1
2018-Apr-15 09:49N 31°11' E 122°28'  
2018-Apr-13 00:00N 31°12' E 122°24'3 0.7 090 / 201013.0 5.4 15.011.6
2018-Apr-12 19:59N 31°13' E 122°27'0 0.1
2018-Apr-12 18:24N 31°13' E 122°27'0 0.2
2018-Apr-12 18:00N 31°13' E 122°27'0 0.0
2018-Apr-12 17:30N 31°13' E 122°27'0 0.2
2018-Apr-12 16:36N 31°13' E 122°27'0 0.3
2018-Apr-12 16:27N 31°13' E 122°27'0 0.0
2018-Apr-12 12:39N 31°13' E 122°27'0 0.1
2018-Apr-12 12:21N 31°13' E 122°27'0 0.0
2018-Apr-12 11:57N 31°13' E 122°27'0 0.0
2018-Apr-12 11:12N 31°13' E 122°27'0 0.1
2018-Apr-12 10:59N 31°13' E 122°27'0 0.1
2018-Apr-12 10:30N 31°13' E 122°27'0 0.1
2018-Apr-12 08:42N 31°13' E 122°27'0 0.1
2018-Apr-12 03:12N 31°14' E 122°27'0 0.3
2018-Apr-12 03:00N 31°13' E 122°27'0 0.0
2018-Apr-12 02:30N 31°13' E 122°27'0 0.1
2018-Apr-12 01:56N 31°13' E 122°27'0 0.1
2018-Apr-12 01:27N 31°13' E 122°27'0 0.0
2018-Apr-12 00:55N 31°13' E 122°27'0 0.0
2018-Apr-11 23:48N 31°13' E 122°27'0 0.1
2018-Apr-11 23:30N 31°13' E 122°27'0 0.0
2018-Apr-11 22:57N 31°13' E 122°27'0 0.1
2018-Apr-11 22:18N 31°13' E 122°27'0 0.1
2018-Apr-11 21:48N 31°13' E 122°27'0 0.1
2018-Apr-11 20:57N 31°13' E 122°27'0 0.1
2018-Apr-11 20:21N 31°13' E 122°27'0 0.0
2018-Apr-11 19:51N 31°13' E 122°27'0 0.1
2018-Apr-11 16:09N 31°13' E 122°27'0 0.0
2018-Apr-11 15:48N 31°14' E 122°27'0 0.2
2018-Apr-11 15:30N 31°14' E 122°27'0 0.1
2018-Apr-11 13:57N 31°14' E 122°27'0 0.0
2018-Apr-11 13:27N 31°14' E 122°27'0 0.0
2018-Apr-11 12:30N 31°13' E 122°27'0 0.1
2018-Apr-11 11:39N 31°13' E 122°27'0 0.1
2018-Apr-11 11:25N 31°13' E 122°27'0 0.0
2018-Apr-11 10:58N 31°13' E 122°27'0 0.0
2018-Apr-11 10:30N 31°13' E 122°27'0 0.1
2018-Apr-11 09:57N 31°13' E 122°27'0 0.0
2018-Apr-11 04:48N 31°13' E 122°27'0 0.0
2018-Apr-11 04:25N 31°13' E 122°27'0 0.0
2018-Apr-11 03:52N 31°13' E 122°27'0 0.0
2018-Apr-10 16:30N 31°13' E 122°27'0 0.1
2018-Apr-10 16:00N 31°13' E 122°27'0 0.0
2018-Apr-10 15:30N 31°13' E 122°27'0 0.0
2018-Apr-10 14:35N 31°14' E 122°27'0 0.4
2018-Apr-10 14:28N 31°14' E 122°27'0 0.1
2018-Apr-10 13:55N 31°14' E 122°27'0 0.1
2018-Apr-10 12:57N 31°14' E 122°27'0 0.0
2018-Apr-10 12:27N 31°14' E 122°27'0 0.1
2018-Apr-10 11:56N 31°14' E 122°27'0 0.0
2018-Apr-10 10:33N 31°14' E 122°27'0 0.0
2018-Apr-10 10:18N 31°14' E 122°27'0 0.0
2018-Apr-10 09:59N 31°14' E 122°27'0 0.0
2018-Apr-10 01:08N 31°14' E 122°27'0 0.0
2018-Apr-10 00:56N 31°14' E 122°27'0 0.0
2018-Apr-09 21:38N 31°14' E 122°27'0 0.0
2018-Apr-09 18:56N 31°14' E 122°27'0 0.0
2018-Apr-09 18:17N 31°14' E 122°27'0 0.0
2018-Apr-09 17:29N 31°14' E 122°27'0 0.1
2018-Apr-09 16:59N 31°14' E 122°27'0 0.0
2018-Apr-09 15:02N 31°14' E 122°27'0 0.0
2018-Apr-09 14:59N 31°14' E 122°27'0 0.0
2018-Apr-09 14:29N 31°14' E 122°27'0 0.0
2018-Apr-09 13:59N 31°14' E 122°27'0 0.0
2018-Apr-09 12:20N 31°14' E 122°27'0 0.0
2018-Apr-09 11:59N 31°14' E 122°27'0 0.1
2018-Apr-09 11:20N 31°14' E 122°27'0 0.0
2018-Apr-09 10:50N 31°14' E 122°27'0 0.1
2018-Apr-09 10:31N 31°14' E 122°27'  
Track history (hours):
 
Tides and Currents Weather Stations Pressure Air Temp Water Temp Dewpoint Dewpoint Depression Visibility Wind Speed Wind Dir Waves Ship Positions

OOCL California

Last reported at 2018-Apr-19 10:15 UTC. Time now 2018-Apr-20 16:45 UTC.
Position N 22°57' E 117°02'.

Length 276 m; beam 40 m; draft 14 m.

Type: Ship. MMSI: 477704000.

Date/timePositionNaut miles runAvg speedWind from/ knotsBaromVisibWave heightAir tempDewpointWater temp
2018-Apr-19 10:15N 22°57' E 117°02'2017.9
2018-Apr-19 09:10N 23°08' E 117°20'418.1
2018-Apr-19 08:56N 23°10' E 117°24'818.3
2018-Apr-19 08:30N 23°14' E 117°31'918.4
2018-Apr-19 08:00N 23°20' E 117°39'918.5
2018-Apr-19 07:31N 23°24' E 117°48'918.3
2018-Apr-19 07:00N 23°30' E 117°56'918.0
2018-Apr-19 06:30N 23°36' E 118°03'917.8
2018-Apr-19 06:00N 23°42' E 118°10'917.7
2018-Apr-19 05:31N 23°48' E 118°17'917.4
2018-Apr-19 05:01N 23°54' E 118°24'917.1
2018-Apr-19 04:30N 23°60' E 118°31'817.0
2018-Apr-19 04:01N 24°05' E 118°38'816.8
2018-Apr-19 03:30N 24°11' E 118°45'816.7
2018-Apr-19 03:00N 24°16' E 118°52'916.2
2018-Apr-19 02:26N 24°22' E 118°60'715.6
2018-Apr-19 02:00N 24°26' E 119°05'815.6
2018-Apr-19 01:30N 24°31' E 119°12'915.5
2018-Apr-19 00:56N 24°37' E 119°19'715.5
2018-Apr-19 00:30N 24°42' E 119°25'5 9.6
2018-Apr-19 00:00N 24°42' E 119°30'   350 / 221012.0 5.4 19.015.9
2018-Apr-16 08:05N 30°59' E 122°31'113.8
2018-Apr-16 08:01N 31°00' E 122°32'1310.3
2018-Apr-16 06:47N 31°06' E 122°18'1943.9
2018-Apr-16 06:22N 31°15' E 121°59'1010.2
2018-Apr-16 05:22N 31°17' E 121°48'2 5.3
2018-Apr-16 05:00N 31°18' E 121°46'6 1.7
2018-Apr-16 01:25N 31°20' E 121°39'0 0.0
2018-Apr-16 00:58N 31°20' E 121°39'0 0.0
2018-Apr-15 21:34N 31°20' E 121°39'0 0.0
2018-Apr-15 18:52N 31°20' E 121°39'0 0.0
2018-Apr-15 18:25N 31°20' E 121°39'0 0.0
2018-Apr-15 16:47N 31°20' E 121°39'1 0.8
2018-Apr-15 15:42N 31°21' E 121°38'1 4.1
2018-Apr-15 15:26N 31°21' E 121°40'4 8.2
2018-Apr-15 14:55N 31°19' E 121°44'410.1
2018-Apr-15 14:30N 31°17' E 121°48'610.3
2018-Apr-15 13:54N 31°16' E 121°55'510.2
2018-Apr-15 13:22N 31°15' E 122°02'6 8.8
2018-Apr-15 12:44N 31°13' E 122°08'2 8.4
2018-Apr-15 12:29N 31°11' E 122°10'4 8.1
2018-Apr-15 12:00N 31°09' E 122°13'4 6.1
2018-Apr-15 11:22N 31°07' E 122°17'4 9.0
2018-Apr-15 10:59N 31°06' E 122°21'6 9.9
2018-Apr-15 10:25N 31°07' E 122°28'4 7.1
2018-Apr-15 09:49N 31°11' E 122°28'  
2018-Apr-13 00:00N 31°12' E 122°24'3 0.7 090 / 201013.0 5.4 15.011.6
2018-Apr-12 19:59N 31°13' E 122°27'0 0.1
2018-Apr-12 18:24N 31°13' E 122°27'0 0.2
2018-Apr-12 18:00N 31°13' E 122°27'0 0.0
2018-Apr-12 17:30N 31°13' E 122°27'0 0.2
2018-Apr-12 16:36N 31°13' E 122°27'0 0.3
2018-Apr-12 16:27N 31°13' E 122°27'0 0.0
2018-Apr-12 12:39N 31°13' E 122°27'0 0.1
2018-Apr-12 12:21N 31°13' E 122°27'0 0.0
2018-Apr-12 11:57N 31°13' E 122°27'0 0.0
2018-Apr-12 11:12N 31°13' E 122°27'0 0.1
2018-Apr-12 10:59N 31°13' E 122°27'0 0.1
2018-Apr-12 10:30N 31°13' E 122°27'0 0.1
2018-Apr-12 08:42N 31°13' E 122°27'0 0.1
2018-Apr-12 03:12N 31°14' E 122°27'0 0.3
2018-Apr-12 03:00N 31°13' E 122°27'0 0.0
2018-Apr-12 02:30N 31°13' E 122°27'0 0.1
2018-Apr-12 01:56N 31°13' E 122°27'0 0.1
2018-Apr-12 01:27N 31°13' E 122°27'0 0.0
2018-Apr-12 00:55N 31°13' E 122°27'0 0.0
2018-Apr-11 23:48N 31°13' E 122°27'0 0.1
2018-Apr-11 23:30N 31°13' E 122°27'0 0.0
2018-Apr-11 22:57N 31°13' E 122°27'0 0.1
2018-Apr-11 22:18N 31°13' E 122°27'0 0.1
2018-Apr-11 21:48N 31°13' E 122°27'0 0.1
2018-Apr-11 20:57N 31°13' E 122°27'0 0.1
2018-Apr-11 20:21N 31°13' E 122°27'0 0.0
2018-Apr-11 19:51N 31°13' E 122°27'0 0.1
2018-Apr-11 16:09N 31°13' E 122°27'0 0.0
2018-Apr-11 15:48N 31°14' E 122°27'0 0.2
2018-Apr-11 15:30N 31°14' E 122°27'0 0.1
2018-Apr-11 13:57N 31°14' E 122°27'0 0.0
2018-Apr-11 13:27N 31°14' E 122°27'0 0.0
2018-Apr-11 12:30N 31°13' E 122°27'0 0.1
2018-Apr-11 11:39N 31°13' E 122°27'0 0.1
2018-Apr-11 11:25N 31°13' E 122°27'0 0.0
2018-Apr-11 10:58N 31°13' E 122°27'0 0.0
2018-Apr-11 10:30N 31°13' E 122°27'0 0.1
2018-Apr-11 09:57N 31°13' E 122°27'0 0.0
2018-Apr-11 04:48N 31°13' E 122°27'0 0.0
2018-Apr-11 04:25N 31°13' E 122°27'0 0.0
2018-Apr-11 03:52N 31°13' E 122°27'0 0.0
2018-Apr-10 16:30N 31°13' E 122°27'0 0.1
2018-Apr-10 16:00N 31°13' E 122°27'0 0.0
2018-Apr-10 15:30N 31°13' E 122°27'0 0.0
2018-Apr-10 14:35N 31°14' E 122°27'0 0.4
2018-Apr-10 14:28N 31°14' E 122°27'0 0.1
2018-Apr-10 13:55N 31°14' E 122°27'0 0.1
2018-Apr-10 12:57N 31°14' E 122°27'0 0.0
2018-Apr-10 12:27N 31°14' E 122°27'0 0.1
2018-Apr-10 11:56N 31°14' E 122°27'0 0.0
2018-Apr-10 10:33N 31°14' E 122°27'0 0.0
2018-Apr-10 10:18N 31°14' E 122°27'0 0.0
2018-Apr-10 09:59N 31°14' E 122°27'0 0.0
2018-Apr-10 01:08N 31°14' E 122°27'0 0.0
2018-Apr-10 00:56N 31°14' E 122°27'0 0.0
2018-Apr-09 21:38N 31°14' E 122°27'0 0.0
2018-Apr-09 18:56N 31°14' E 122°27'0 0.0
2018-Apr-09 18:17N 31°14' E 122°27'0 0.0
2018-Apr-09 17:29N 31°14' E 122°27'0 0.1
2018-Apr-09 16:59N 31°14' E 122°27'0 0.0
2018-Apr-09 15:02N 31°14' E 122°27'0 0.0
2018-Apr-09 14:59N 31°14' E 122°27'0 0.0
2018-Apr-09 14:29N 31°14' E 122°27'0 0.0
2018-Apr-09 13:59N 31°14' E 122°27'0 0.0
2018-Apr-09 12:20N 31°14' E 122°27'0 0.0
2018-Apr-09 11:59N 31°14' E 122°27'0 0.1
2018-Apr-09 11:20N 31°14' E 122°27'0 0.0
2018-Apr-09 10:50N 31°14' E 122°27'0 0.1
2018-Apr-09 10:31N 31°14' E 122°27'  

Dump ship's entire track history